LTAJ Airport Information

Runway Information
Runway 10L Length 9843 ft width 157 ft
Elevation 2315 ft Threshold 427 ft Heading 105
Runway 28R Length 9843 ft Width 157 ft
Elevation 2190 ft Threshold 0 ft Heading 285
Runway 10R Length 9842 ft width 100 ft
Elevation 2309 ft Threshold 328 ft Heading 105
Runway 28L Length 9842 ft Width 100 ft
Elevation 2215 ft Threshold 0 ft Heading 285
Airport Frequencies
Type APP Name APP Frequency 120.1 MHZ
Type ATIS Name Frequency 119.275 MHZ
Type TWR Name TWR Frequency 120.1 MHZ
Airport Navaids
Type VOR-DME Name Gaziantep Frequency 116700 KHZ
Type NDB Name Oguzeli Frequency 432 KHZ
Airport Weather Information & NOTAM
ADDS - METARS form results

(2016 UTC 14 November 2018)
Data provider http://aviationweather.gov/metar/data/
 
METAR text: LTAJ 141950Z 36007KT 340V040 CAVOK 08/00 Q1012 NOSIG RMK RWY10 01010KT
Conditions at: LTAJ (GAZIANTEP , TR) observed 1950 UTC 14 November 2018
Temperature: 8.0°C (46°F)
Dewpoint: 0.0°C (32°F) [RH = 57%]
Pressure (altimeter): 29.88 inches Hg (1012.0 mb)
Winds: from the N (360 degrees) at 8 MPH (7 knots; 3.6 m/s)
Visibility: 6 or more miles (10+ km)
Ceiling: ceiling and visibility are OK
Clouds: unknown
Weather: no significant weather observed at this time

METAR text: LTAJ 141920Z 35007KT 9999 SCT040 BKN100 07/02 Q1011 NOSIG RMK RWY10 01009KT
Conditions at: LTAJ (GAZIANTEP , TR) observed 1920 UTC 14 November 2018
Temperature: 7.0°C (45°F)
Dewpoint: 2.0°C (36°F) [RH = 70%]
Pressure (altimeter): 29.85 inches Hg (1011.0 mb)
Winds: from the N (350 degrees) at 8 MPH (7 knots; 3.6 m/s)
Visibility: 6 or more miles (10+ km)
Ceiling: 10000 feet AGL
Clouds: scattered clouds at 4000 feet AGL
broken clouds at 10000 feet AGL
Weather: no significant weather observed at this time

Forecast for: LTAJ (GAZIANTEP , TR)
Text: TAF LTAJ 141640Z 1418/1518 36012KT 9999 SCT040 BKN100
Forecast period: 1800 to 2000 UTC 14 November 2018
Forecast type: FROM: standard forecast or significant change
Winds: from the N (360 degrees) at 14 MPH (12 knots; 6.2 m/s)
Visibility: 6 or more miles 10+ km)
Ceiling: 10000 feet AGL
Clouds: scattered clouds at 4000 feet AGL
broken clouds at 10000 feet AGL
Weather: no significant weather forecast for this period
Text: BECMG 1420/1422 CAVOK
Forecast period: 2000 UTC 14 November 2018 to 0900 UTC 15 November 2018
Forecast type: BECOMING: Conditions expected to become as follows by 2200 UTC 14 November 2018
Winds: from the N (360 degrees) at 14 MPH (12 knots; 6.2 m/s)
Visibility: 6 or more miles 10+ km)
Ceiling: unknown
Clouds: missing
Weather: NSW  (no significant weather)
Text: BECMG 1509/1512 VRB02KT
Forecast period: 0900 to 1800 UTC 15 November 2018
Forecast type: BECOMING: Conditions expected to become as follows by 1200 UTC 15 November 2018
Winds: variable direction winds at 2 MPH (2 knots; 1.0 m/s)
Visibility: 6 or more miles 10+ km)
Ceiling: unknown
Clouds: missing
Weather: NSW  (no significant weather)